sensor_id;sensor_type;location;lat;lon;timestamp;pressure;altitude;pressure_sealevel;temperature
60966;BMP180;46834;51.100;6.886;2022-07-11T00:02:05;101905.00;;;23.50
60966;BMP180;46834;51.100;6.886;2022-07-11T00:04:32;101909.00;;;23.50
60966;BMP180;46834;51.100;6.886;2022-07-11T00:07:00;101903.00;;;23.50
60966;BMP180;46834;51.100;6.886;2022-07-11T00:09:27;101906.00;;;23.50
60966;BMP180;46834;51.100;6.886;2022-07-11T00:11:53;101908.00;;;23.50
60966;BMP180;46834;51.100;6.886;2022-07-11T00:14:20;101895.00;;;23.50
60966;BMP180;46834;51.100;6.886;2022-07-11T00:16:48;101897.00;;;23.50
60966;BMP180;46834;51.100;6.886;2022-07-11T00:19:14;101894.00;;;23.50
60966;BMP180;46834;51.100;6.886;2022-07-11T00:21:40;101903.00;;;23.50
60966;BMP180;46834;51.100;6.886;2022-07-11T00:24:06;101899.00;;;23.40
60966;BMP180;46834;51.100;6.886;2022-07-11T00:26:36;101890.00;;;23.40
60966;BMP180;46834;51.100;6.886;2022-07-11T00:29:03;101900.00;;;23.40
60966;BMP180;46834;51.100;6.886;2022-07-11T00:31:30;101902.00;;;23.40
60966;BMP180;46834;51.100;6.886;2022-07-11T00:33:56;101899.00;;;23.40
60966;BMP180;46834;51.100;6.886;2022-07-11T00:36:23;101895.00;;;23.40
60966;BMP180;46834;51.100;6.886;2022-07-11T00:38:49;101895.00;;;23.40
60966;BMP180;46834;51.100;6.886;2022-07-11T00:41:15;101898.00;;;23.40
60966;BMP180;46834;51.100;6.886;2022-07-11T00:43:41;101894.00;;;23.30
60966;BMP180;46834;51.100;6.886;2022-07-11T00:46:09;101890.00;;;23.30
60966;BMP180;46834;51.100;6.886;2022-07-11T00:48:36;101892.00;;;23.30
60966;BMP180;46834;51.100;6.886;2022-07-11T00:51:04;101893.00;;;23.30
60966;BMP180;46834;51.100;6.886;2022-07-11T00:53:31;101893.00;;;23.30
60966;BMP180;46834;51.100;6.886;2022-07-11T00:55:59;101890.00;;;23.30
60966;BMP180;46834;51.100;6.886;2022-07-11T00:58:25;101893.00;;;23.30
60966;BMP180;46834;51.100;6.886;2022-07-11T01:00:52;101896.00;;;23.30
60966;BMP180;46834;51.100;6.886;2022-07-11T01:03:18;101888.00;;;23.30
60966;BMP180;46834;51.100;6.886;2022-07-11T01:05:44;101892.00;;;23.30
60966;BMP180;46834;51.100;6.886;2022-07-11T01:08:10;101884.00;;;23.20
60966;BMP180;46834;51.100;6.886;2022-07-11T01:10:36;101885.00;;;23.20
60966;BMP180;46834;51.100;6.886;2022-07-11T01:13:02;101889.00;;;23.20
60966;BMP180;46834;51.100;6.886;2022-07-11T01:15:28;101877.00;;;23.20
60966;BMP180;46834;51.100;6.886;2022-07-11T01:17:53;101882.00;;;23.20
60966;BMP180;46834;51.100;6.886;2022-07-11T01:20:20;101877.00;;;23.20
60966;BMP180;46834;51.100;6.886;2022-07-11T01:22:54;101875.00;;;23.10
60966;BMP180;46834;51.100;6.886;2022-07-11T01:25:21;101885.00;;;23.20
60966;BMP180;46834;51.100;6.886;2022-07-11T01:27:59;101869.00;;;23.10
60966;BMP180;46834;51.100;6.886;2022-07-11T01:30:26;101878.00;;;23.10
60966;BMP180;46834;51.100;6.886;2022-07-11T01:32:54;101880.00;;;23.10
60966;BMP180;46834;51.100;6.886;2022-07-11T01:35:20;101869.00;;;23.10
60966;BMP180;46834;51.100;6.886;2022-07-11T01:37:46;101873.00;;;23.10
60966;BMP180;46834;51.100;6.886;2022-07-11T01:40:13;101871.00;;;23.00
60966;BMP180;46834;51.100;6.886;2022-07-11T01:42:39;101871.00;;;23.00
60966;BMP180;46834;51.100;6.886;2022-07-11T01:45:05;101871.00;;;23.00
60966;BMP180;46834;51.100;6.886;2022-07-11T01:47:31;101869.00;;;22.90
60966;BMP180;46834;51.100;6.886;2022-07-11T01:49:56;101860.00;;;22.90
60966;BMP180;46834;51.100;6.886;2022-07-11T01:52:22;101874.00;;;22.90
60966;BMP180;46834;51.100;6.886;2022-07-11T01:54:48;101871.00;;;22.90
60966;BMP180;46834;51.100;6.886;2022-07-11T01:57:15;101873.00;;;22.80
60966;BMP180;46834;51.100;6.886;2022-07-11T01:59:40;101870.00;;;22.80
60966;BMP180;46834;51.100;6.886;2022-07-11T02:02:06;101877.00;;;22.80
60966;BMP180;46834;51.100;6.886;2022-07-11T02:04:32;101862.00;;;22.80
60966;BMP180;46834;51.100;6.886;2022-07-11T02:06:58;101853.00;;;22.70
60966;BMP180;46834;51.100;6.886;2022-07-11T02:09:24;101861.00;;;22.70
60966;BMP180;46834;51.100;6.886;2022-07-11T02:11:49;101869.00;;;22.70
60966;BMP180;46834;51.100;6.886;2022-07-11T02:14:15;101858.00;;;22.60
60966;BMP180;46834;51.100;6.886;2022-07-11T02:16:41;101857.00;;;22.60
60966;BMP180;46834;51.100;6.886;2022-07-11T02:19:07;101870.00;;;22.60
60966;BMP180;46834;51.100;6.886;2022-07-11T02:21:33;101870.00;;;22.60
60966;BMP180;46834;51.100;6.886;2022-07-11T02:24:00;101856.00;;;22.50
60966;BMP180;46834;51.100;6.886;2022-07-11T02:26:25;101877.00;;;22.50
60966;BMP180;46834;51.100;6.886;2022-07-11T02:28:51;101859.00;;;22.50
60966;BMP180;46834;51.100;6.886;2022-07-11T02:31:17;101863.00;;;22.50
60966;BMP180;46834;51.100;6.886;2022-07-11T02:33:43;101879.00;;;22.40
60966;BMP180;46834;51.100;6.886;2022-07-11T02:36:08;101849.00;;;22.40
60966;BMP180;46834;51.100;6.886;2022-07-11T02:38:35;101863.00;;;22.30
60966;BMP180;46834;51.100;6.886;2022-07-11T02:41:01;101863.00;;;22.30
60966;BMP180;46834;51.100;6.886;2022-07-11T02:43:27;101862.00;;;22.30
60966;BMP180;46834;51.100;6.886;2022-07-11T02:45:54;101874.00;;;22.30
60966;BMP180;46834;51.100;6.886;2022-07-11T02:48:20;101865.00;;;22.20
60966;BMP180;46834;51.100;6.886;2022-07-11T02:50:46;101870.00;;;22.30
60966;BMP180;46834;51.100;6.886;2022-07-11T02:53:12;101872.00;;;22.20
60966;BMP180;46834;51.100;6.886;2022-07-11T02:55:37;101871.00;;;22.20
60966;BMP180;46834;51.100;6.886;2022-07-11T02:58:03;101876.00;;;22.20
60966;BMP180;46834;51.100;6.886;2022-07-11T03:00:30;101869.00;;;22.20
60966;BMP180;46834;51.100;6.886;2022-07-11T03:02:55;101872.00;;;22.20
60966;BMP180;46834;51.100;6.886;2022-07-11T03:05:22;101878.00;;;22.20
60966;BMP180;46834;51.100;6.886;2022-07-11T03:07:48;101865.00;;;22.20
60966;BMP180;46834;51.100;6.886;2022-07-11T03:10:14;101872.00;;;22.10
60966;BMP180;46834;51.100;6.886;2022-07-11T03:12:40;101874.00;;;22.10
60966;BMP180;46834;51.100;6.886;2022-07-11T03:15:08;101872.00;;;22.10
60966;BMP180;46834;51.100;6.886;2022-07-11T03:17:37;101875.00;;;22.10
60966;BMP180;46834;51.100;6.886;2022-07-11T03:20:05;101878.00;;;22.00
60966;BMP180;46834;51.100;6.886;2022-07-11T03:22:31;101870.00;;;22.00
60966;BMP180;46834;51.100;6.886;2022-07-11T03:24:56;101861.00;;;22.00
60966;BMP180;46834;51.100;6.886;2022-07-11T03:27:22;101872.00;;;22.00
60966;BMP180;46834;51.100;6.886;2022-07-11T03:29:48;101874.00;;;22.00
60966;BMP180;46834;51.100;6.886;2022-07-11T03:32:14;101878.00;;;21.90
60966;BMP180;46834;51.100;6.886;2022-07-11T03:34:40;101881.00;;;21.90
60966;BMP180;46834;51.100;6.886;2022-07-11T03:37:05;101877.00;;;21.90
60966;BMP180;46834;51.100;6.886;2022-07-11T03:39:32;101881.00;;;21.90
60966;BMP180;46834;51.100;6.886;2022-07-11T03:41:58;101885.00;;;21.90
60966;BMP180;46834;51.100;6.886;2022-07-11T03:44:24;101880.00;;;21.90
60966;BMP180;46834;51.100;6.886;2022-07-11T03:46:50;101875.00;;;21.90
60966;BMP180;46834;51.100;6.886;2022-07-11T03:49:15;101894.00;;;21.90
60966;BMP180;46834;51.100;6.886;2022-07-11T03:51:42;101887.00;;;21.90
60966;BMP180;46834;51.100;6.886;2022-07-11T03:54:08;101888.00;;;21.90
60966;BMP180;46834;51.100;6.886;2022-07-11T03:56:34;101887.00;;;21.90
60966;BMP180;46834;51.100;6.886;2022-07-11T03:58:59;101893.00;;;21.90
60966;BMP180;46834;51.100;6.886;2022-07-11T04:01:25;101884.00;;;21.90
60966;BMP180;46834;51.100;6.886;2022-07-11T04:03:51;101894.00;;;21.90
60966;BMP180;46834;51.100;6.886;2022-07-11T04:06:16;101894.00;;;21.90
60966;BMP180;46834;51.100;6.886;2022-07-11T04:08:42;101897.00;;;21.90
60966;BMP180;46834;51.100;6.886;2022-07-11T04:11:08;101901.00;;;21.90
60966;BMP180;46834;51.100;6.886;2022-07-11T04:13:34;101889.00;;;21.90
60966;BMP180;46834;51.100;6.886;2022-07-11T04:16:00;101885.00;;;21.90
60966;BMP180;46834;51.100;6.886;2022-07-11T04:18:26;101893.00;;;21.90
60966;BMP180;46834;51.100;6.886;2022-07-11T04:20:52;101893.00;;;22.00
60966;BMP180;46834;51.100;6.886;2022-07-11T04:23:18;101886.00;;;22.00
60966;BMP180;46834;51.100;6.886;2022-07-11T04:25:44;101896.00;;;22.00
60966;BMP180;46834;51.100;6.886;2022-07-11T04:28:09;101900.00;;;22.00
60966;BMP180;46834;51.100;6.886;2022-07-11T04:30:35;101904.00;;;22.00
60966;BMP180;46834;51.100;6.886;2022-07-11T04:33:01;101906.00;;;22.00
60966;BMP180;46834;51.100;6.886;2022-07-11T04:35:27;101905.00;;;22.00
60966;BMP180;46834;51.100;6.886;2022-07-11T04:37:54;101899.00;;;22.00
60966;BMP180;46834;51.100;6.886;2022-07-11T04:40:20;101890.00;;;22.00
60966;BMP180;46834;51.100;6.886;2022-07-11T04:42:50;101901.00;;;22.00
60966;BMP180;46834;51.100;6.886;2022-07-11T04:45:16;101894.00;;;22.00
60966;BMP180;46834;51.100;6.886;2022-07-11T04:47:42;101897.00;;;22.00
60966;BMP180;46834;51.100;6.886;2022-07-11T04:50:08;101903.00;;;22.00
60966;BMP180;46834;51.100;6.886;2022-07-11T04:52:34;101908.00;;;22.00
60966;BMP180;46834;51.100;6.886;2022-07-11T04:55:00;101895.00;;;22.00
60966;BMP180;46834;51.100;6.886;2022-07-11T04:57:26;101903.00;;;22.00
60966;BMP180;46834;51.100;6.886;2022-07-11T04:59:52;101914.00;;;22.00
60966;BMP180;46834;51.100;6.886;2022-07-11T05:02:18;101916.00;;;22.10
60966;BMP180;46834;51.100;6.886;2022-07-11T05:04:45;101909.00;;;22.00
60966;BMP180;46834;51.100;6.886;2022-07-11T05:07:11;101913.00;;;22.00
60966;BMP180;46834;51.100;6.886;2022-07-11T05:09:39;101911.00;;;22.00
60966;BMP180;46834;51.100;6.886;2022-07-11T05:12:06;101914.00;;;22.00
60966;BMP180;46834;51.100;6.886;2022-07-11T05:14:32;101905.00;;;22.10
60966;BMP180;46834;51.100;6.886;2022-07-11T05:16:58;101912.00;;;22.10
60966;BMP180;46834;51.100;6.886;2022-07-11T05:19:23;101917.00;;;22.00
60966;BMP180;46834;51.100;6.886;2022-07-11T05:21:49;101926.00;;;22.10
60966;BMP180;46834;51.100;6.886;2022-07-11T05:24:15;101925.00;;;22.10
60966;BMP180;46834;51.100;6.886;2022-07-11T05:26:40;101916.00;;;22.00
60966;BMP180;46834;51.100;6.886;2022-07-11T05:29:08;101928.00;;;22.00
60966;BMP180;46834;51.100;6.886;2022-07-11T05:31:33;101929.00;;;22.10
60966;BMP180;46834;51.100;6.886;2022-07-11T05:33:59;101928.00;;;22.10
60966;BMP180;46834;51.100;6.886;2022-07-11T05:36:24;101930.00;;;22.10
60966;BMP180;46834;51.100;6.886;2022-07-11T05:38:50;101928.00;;;22.10
60966;BMP180;46834;51.100;6.886;2022-07-11T05:41:16;101941.00;;;22.10
60966;BMP180;46834;51.100;6.886;2022-07-11T05:43:41;101933.00;;;22.10
60966;BMP180;46834;51.100;6.886;2022-07-11T05:46:07;101947.00;;;22.10
60966;BMP180;46834;51.100;6.886;2022-07-11T05:48:33;101939.00;;;22.10
60966;BMP180;46834;51.100;6.886;2022-07-11T05:50:58;101933.00;;;22.10
60966;BMP180;46834;51.100;6.886;2022-07-11T05:53:24;101939.00;;;22.10
60966;BMP180;46834;51.100;6.886;2022-07-11T05:55:50;101946.00;;;22.20
60966;BMP180;46834;51.100;6.886;2022-07-11T05:58:15;101936.00;;;22.20
60966;BMP180;46834;51.100;6.886;2022-07-11T06:00:41;101931.00;;;22.20
60966;BMP180;46834;51.100;6.886;2022-07-11T06:03:07;101942.00;;;22.30
60966;BMP180;46834;51.100;6.886;2022-07-11T06:05:32;101936.00;;;22.40
60966;BMP180;46834;51.100;6.886;2022-07-11T06:07:58;101946.00;;;22.50
60966;BMP180;46834;51.100;6.886;2022-07-11T06:10:42;101948.00;;;22.60
60966;BMP180;46834;51.100;6.886;2022-07-11T06:13:08;101937.00;;;22.60
60966;BMP180;46834;51.100;6.886;2022-07-11T06:15:34;101942.00;;;22.70
60966;BMP180;46834;51.100;6.886;2022-07-11T06:17:59;101951.00;;;22.70
60966;BMP180;46834;51.100;6.886;2022-07-11T06:20:25;101953.00;;;22.80
60966;BMP180;46834;51.100;6.886;2022-07-11T06:22:51;101952.00;;;22.80
60966;BMP180;46834;51.100;6.886;2022-07-11T06:25:18;101944.00;;;22.80
60966;BMP180;46834;51.100;6.886;2022-07-11T06:27:44;101958.00;;;22.90
60966;BMP180;46834;51.100;6.886;2022-07-11T06:30:10;101951.00;;;22.90
60966;BMP180;46834;51.100;6.886;2022-07-11T06:32:36;101958.00;;;22.90
60966;BMP180;46834;51.100;6.886;2022-07-11T06:35:02;101956.00;;;22.90
60966;BMP180;46834;51.100;6.886;2022-07-11T06:37:28;101965.00;;;23.00
60966;BMP180;46834;51.100;6.886;2022-07-11T06:39:54;101962.00;;;23.00
60966;BMP180;46834;51.100;6.886;2022-07-11T06:42:19;101965.00;;;23.00
60966;BMP180;46834;51.100;6.886;2022-07-11T06:44:45;101955.00;;;23.00
60966;BMP180;46834;51.100;6.886;2022-07-11T06:47:11;101956.00;;;23.00
60966;BMP180;46834;51.100;6.886;2022-07-11T06:49:36;101964.00;;;23.00
60966;BMP180;46834;51.100;6.886;2022-07-11T06:52:02;101955.00;;;23.00
60966;BMP180;46834;51.100;6.886;2022-07-11T06:54:28;101962.00;;;23.00
60966;BMP180;46834;51.100;6.886;2022-07-11T06:56:54;101961.00;;;23.00
60966;BMP180;46834;51.100;6.886;2022-07-11T06:59:19;101963.00;;;23.00
60966;BMP180;46834;51.100;6.886;2022-07-11T07:01:45;101956.00;;;23.00
60966;BMP180;46834;51.100;6.886;2022-07-11T07:04:11;101947.00;;;23.00
60966;BMP180;46834;51.100;6.886;2022-07-11T07:06:37;101957.00;;;23.00
60966;BMP180;46834;51.100;6.886;2022-07-11T07:09:02;101953.00;;;23.00
60966;BMP180;46834;51.100;6.886;2022-07-11T07:11:28;101963.00;;;23.00
60966;BMP180;46834;51.100;6.886;2022-07-11T07:13:54;101953.00;;;23.00
60966;BMP180;46834;51.100;6.886;2022-07-11T07:16:20;101955.00;;;23.00
60966;BMP180;46834;51.100;6.886;2022-07-11T07:18:45;101968.00;;;23.10
60966;BMP180;46834;51.100;6.886;2022-07-11T07:21:13;101966.00;;;23.10
60966;BMP180;46834;51.100;6.886;2022-07-11T07:23:38;101968.00;;;23.10
60966;BMP180;46834;51.100;6.886;2022-07-11T07:26:04;101976.00;;;23.10
60966;BMP180;46834;51.100;6.886;2022-07-11T07:28:30;101975.00;;;23.10
60966;BMP180;46834;51.100;6.886;2022-07-11T07:30:56;101978.00;;;23.10
60966;BMP180;46834;51.100;6.886;2022-07-11T07:33:22;101975.00;;;23.10
60966;BMP180;46834;51.100;6.886;2022-07-11T07:35:48;101969.00;;;23.20
60966;BMP180;46834;51.100;6.886;2022-07-11T07:38:14;101978.00;;;23.20
60966;BMP180;46834;51.100;6.886;2022-07-11T07:40:39;101982.00;;;23.10
60966;BMP180;46834;51.100;6.886;2022-07-11T07:43:05;101974.00;;;23.10
60966;BMP180;46834;51.100;6.886;2022-07-11T07:45:32;101977.00;;;23.20
60966;BMP180;46834;51.100;6.886;2022-07-11T07:47:58;101975.00;;;23.20
60966;BMP180;46834;51.100;6.886;2022-07-11T07:50:24;101973.00;;;23.20
60966;BMP180;46834;51.100;6.886;2022-07-11T07:52:51;101966.00;;;23.20
60966;BMP180;46834;51.100;6.886;2022-07-11T07:55:16;101975.00;;;23.20
60966;BMP180;46834;51.100;6.886;2022-07-11T07:57:43;101967.00;;;23.20
60966;BMP180;46834;51.100;6.886;2022-07-11T08:00:09;101968.00;;;23.20
60966;BMP180;46834;51.100;6.886;2022-07-11T08:02:54;101974.00;;;23.20
60966;BMP180;46834;51.100;6.886;2022-07-11T08:05:20;101967.00;;;23.20
60966;BMP180;46834;51.100;6.886;2022-07-11T08:07:46;101972.00;;;23.20
60966;BMP180;46834;51.100;6.886;2022-07-11T08:10:12;101970.00;;;23.20
60966;BMP180;46834;51.100;6.886;2022-07-11T08:12:40;101974.00;;;23.20
60966;BMP180;46834;51.100;6.886;2022-07-11T08:15:06;101979.00;;;23.20
60966;BMP180;46834;51.100;6.886;2022-07-11T08:17:32;101975.00;;;23.20
60966;BMP180;46834;51.100;6.886;2022-07-11T08:19:58;101976.00;;;23.30
60966;BMP180;46834;51.100;6.886;2022-07-11T08:22:24;101980.00;;;23.30
60966;BMP180;46834;51.100;6.886;2022-07-11T08:24:50;101979.00;;;23.30
60966;BMP180;46834;51.100;6.886;2022-07-11T08:27:16;101978.00;;;23.40
60966;BMP180;46834;51.100;6.886;2022-07-11T08:29:42;101970.00;;;23.40
60966;BMP180;46834;51.100;6.886;2022-07-11T08:32:07;101974.00;;;23.40
60966;BMP180;46834;51.100;6.886;2022-07-11T08:34:33;101971.00;;;23.40
60966;BMP180;46834;51.100;6.886;2022-07-11T08:36:59;101968.00;;;23.40
60966;BMP180;46834;51.100;6.886;2022-07-11T08:39:25;101979.00;;;23.50
60966;BMP180;46834;51.100;6.886;2022-07-11T08:41:51;101978.00;;;23.50
60966;BMP180;46834;51.100;6.886;2022-07-11T08:44:17;101979.00;;;23.50
60966;BMP180;46834;51.100;6.886;2022-07-11T08:46:44;101983.00;;;23.50
60966;BMP180;46834;51.100;6.886;2022-07-11T08:49:12;101992.00;;;23.50
60966;BMP180;46834;51.100;6.886;2022-07-11T08:51:38;101983.00;;;23.60
60966;BMP180;46834;51.100;6.886;2022-07-11T08:54:04;101990.00;;;23.60
60966;BMP180;46834;51.100;6.886;2022-07-11T08:56:31;101989.00;;;23.60
60966;BMP180;46834;51.100;6.886;2022-07-11T08:59:00;101995.00;;;23.60
60966;BMP180;46834;51.100;6.886;2022-07-11T09:01:37;101995.00;;;23.60
60966;BMP180;46834;51.100;6.886;2022-07-11T09:04:07;101990.00;;;23.70
60966;BMP180;46834;51.100;6.886;2022-07-11T09:06:34;101990.00;;;23.70
60966;BMP180;46834;51.100;6.886;2022-07-11T09:09:02;101989.00;;;23.70
60966;BMP180;46834;51.100;6.886;2022-07-11T09:11:28;101989.00;;;23.80
60966;BMP180;46834;51.100;6.886;2022-07-11T09:13:54;101979.00;;;23.90
60966;BMP180;46834;51.100;6.886;2022-07-11T09:16:20;101991.00;;;23.90
60966;BMP180;46834;51.100;6.886;2022-07-11T09:18:46;101989.00;;;24.00
60966;BMP180;46834;51.100;6.886;2022-07-11T09:21:14;101986.00;;;24.00
60966;BMP180;46834;51.100;6.886;2022-07-11T09:24:04;101986.00;;;24.00
60966;BMP180;46834;51.100;6.886;2022-07-11T09:26:51;101991.00;;;24.10
60966;BMP180;46834;51.100;6.886;2022-07-11T09:29:20;101989.00;;;24.10
60966;BMP180;46834;51.100;6.886;2022-07-11T09:31:48;101986.00;;;24.20
60966;BMP180;46834;51.100;6.886;2022-07-11T09:34:22;101981.00;;;24.20
60966;BMP180;46834;51.100;6.886;2022-07-11T09:36:54;101987.00;;;24.20
60966;BMP180;46834;51.100;6.886;2022-07-11T09:39:29;101988.00;;;24.20
60966;BMP180;46834;51.100;6.886;2022-07-11T09:41:56;101984.00;;;24.30
60966;BMP180;46834;51.100;6.886;2022-07-11T09:44:23;101971.00;;;24.30
60966;BMP180;46834;51.100;6.886;2022-07-11T09:46:52;101981.00;;;24.30
60966;BMP180;46834;51.100;6.886;2022-07-11T09:49:37;101983.00;;;24.30
60966;BMP180;46834;51.100;6.886;2022-07-11T09:52:16;101985.00;;;24.30
60966;BMP180;46834;51.100;6.886;2022-07-11T09:54:59;101980.00;;;24.30
60966;BMP180;46834;51.100;6.886;2022-07-11T09:57:35;101983.00;;;24.30
60966;BMP180;46834;51.100;6.886;2022-07-11T10:00:11;101967.00;;;24.30
60966;BMP180;46834;51.100;6.886;2022-07-11T10:02:38;101972.00;;;24.30
60966;BMP180;46834;51.100;6.886;2022-07-11T10:05:05;101979.00;;;24.40
60966;BMP180;46834;51.100;6.886;2022-07-11T10:07:31;101973.00;;;24.40
60966;BMP180;46834;51.100;6.886;2022-07-11T10:09:59;101974.00;;;24.40
60966;BMP180;46834;51.100;6.886;2022-07-11T10:12:26;101976.00;;;24.40
60966;BMP180;46834;51.100;6.886;2022-07-11T10:15:04;101978.00;;;24.40
60966;BMP180;46834;51.100;6.886;2022-07-11T10:17:46;101989.00;;;24.40
60966;BMP180;46834;51.100;6.886;2022-07-11T10:20:53;101990.00;;;24.40
60966;BMP180;46834;51.100;6.886;2022-07-11T10:26:21;101989.00;;;24.50
60966;BMP180;46834;51.100;6.886;2022-07-11T10:28:58;101993.00;;;24.50
60966;BMP180;46834;51.100;6.886;2022-07-11T10:31:26;102001.00;;;24.60
60966;BMP180;46834;51.100;6.886;2022-07-11T10:34:09;101994.00;;;24.50
60966;BMP180;46834;51.100;6.886;2022-07-11T10:36:45;101995.00;;;24.60
60966;BMP180;46834;51.100;6.886;2022-07-11T10:42:00;102004.00;;;24.60
60966;BMP180;46834;51.100;6.886;2022-07-11T10:44:45;102003.00;;;24.70
60966;BMP180;46834;51.100;6.886;2022-07-11T10:47:42;102000.00;;;24.60
60966;BMP180;46834;51.100;6.886;2022-07-11T10:50:35;101997.00;;;24.60
60966;BMP180;46834;51.100;6.886;2022-07-11T10:53:08;101996.00;;;24.70
60966;BMP180;46834;51.100;6.886;2022-07-11T10:58:41;102008.00;;;24.70
60966;BMP180;46834;51.100;6.886;2022-07-11T11:01:13;102010.00;;;24.80
60966;BMP180;46834;51.100;6.886;2022-07-11T11:03:40;102002.00;;;24.80
60966;BMP180;46834;51.100;6.886;2022-07-11T11:06:07;101997.00;;;24.80
60966;BMP180;46834;51.100;6.886;2022-07-11T11:11:03;102005.00;;;24.90
60966;BMP180;46834;51.100;6.886;2022-07-11T11:13:30;102007.00;;;24.90
60966;BMP180;46834;51.100;6.886;2022-07-11T11:15:59;102011.00;;;25.00
60966;BMP180;46834;51.100;6.886;2022-07-11T11:23:31;102007.00;;;25.00
60966;BMP180;46834;51.100;6.886;2022-07-11T11:26:20;102012.00;;;25.00
60966;BMP180;46834;51.100;6.886;2022-07-11T11:29:05;102009.00;;;25.00
60966;BMP180;46834;51.100;6.886;2022-07-11T11:31:32;102004.00;;;25.20
60966;BMP180;46834;51.100;6.886;2022-07-11T11:34:04;102010.00;;;25.20
60966;BMP180;46834;51.100;6.886;2022-07-11T11:36:30;102011.00;;;25.20
60966;BMP180;46834;51.100;6.886;2022-07-11T11:38:57;102016.00;;;25.20
60966;BMP180;46834;51.100;6.886;2022-07-11T11:41:29;102011.00;;;25.30
60966;BMP180;46834;51.100;6.886;2022-07-11T11:43:58;102007.00;;;25.30
60966;BMP180;46834;51.100;6.886;2022-07-11T11:46:31;102007.00;;;25.30
60966;BMP180;46834;51.100;6.886;2022-07-11T11:49:02;101999.00;;;25.40
60966;BMP180;46834;51.100;6.886;2022-07-11T11:51:30;102012.00;;;25.50
60966;BMP180;46834;51.100;6.886;2022-07-11T11:53:59;102002.00;;;25.50
60966;BMP180;46834;51.100;6.886;2022-07-11T11:56:26;102000.00;;;25.60
60966;BMP180;46834;51.100;6.886;2022-07-11T11:59:10;102010.00;;;25.60
60966;BMP180;46834;51.100;6.886;2022-07-11T12:01:40;102003.00;;;25.60
60966;BMP180;46834;51.100;6.886;2022-07-11T12:04:12;102011.00;;;25.70
60966;BMP180;46834;51.100;6.886;2022-07-11T12:06:43;102015.00;;;25.80
60966;BMP180;46834;51.100;6.886;2022-07-11T12:09:22;102013.00;;;25.80
60966;BMP180;46834;51.100;6.886;2022-07-11T12:12:08;102011.00;;;25.90
60966;BMP180;46834;51.100;6.886;2022-07-11T12:14:53;102015.00;;;25.90
60966;BMP180;46834;51.100;6.886;2022-07-11T12:17:27;102005.00;;;25.90
60966;BMP180;46834;51.100;6.886;2022-07-11T12:19:55;102012.00;;;25.90
60966;BMP180;46834;51.100;6.886;2022-07-11T12:22:21;102001.00;;;26.00
60966;BMP180;46834;51.100;6.886;2022-07-11T12:24:52;102007.00;;;25.90
60966;BMP180;46834;51.100;6.886;2022-07-11T12:27:20;102004.00;;;26.00
60966;BMP180;46834;51.100;6.886;2022-07-11T12:29:46;101997.00;;;26.00
60966;BMP180;46834;51.100;6.886;2022-07-11T12:32:18;101994.00;;;26.00
60966;BMP180;46834;51.100;6.886;2022-07-11T12:34:47;102003.00;;;26.00
60966;BMP180;46834;51.100;6.886;2022-07-11T12:37:19;102006.00;;;26.00
60966;BMP180;46834;51.100;6.886;2022-07-11T12:39:53;101993.00;;;26.00
60966;BMP180;46834;51.100;6.886;2022-07-11T12:42:32;102001.00;;;26.00
60966;BMP180;46834;51.100;6.886;2022-07-11T12:45:10;101999.00;;;26.00
60966;BMP180;46834;51.100;6.886;2022-07-11T12:47:44;102005.00;;;26.00
60966;BMP180;46834;51.100;6.886;2022-07-11T12:50:25;102007.00;;;26.00
60966;BMP180;46834;51.100;6.886;2022-07-11T12:52:53;101993.00;;;26.00
60966;BMP180;46834;51.100;6.886;2022-07-11T12:55:32;101994.00;;;26.00
60966;BMP180;46834;51.100;6.886;2022-07-11T12:58:20;101994.00;;;26.00
60966;BMP180;46834;51.100;6.886;2022-07-11T13:00:58;101996.00;;;26.00
60966;BMP180;46834;51.100;6.886;2022-07-11T13:03:35;101996.00;;;26.10
60966;BMP180;46834;51.100;6.886;2022-07-11T13:06:02;101991.00;;;26.10
60966;BMP180;46834;51.100;6.886;2022-07-11T13:08:33;101989.00;;;26.10
60966;BMP180;46834;51.100;6.886;2022-07-11T13:11:09;101987.00;;;26.10
60966;BMP180;46834;51.100;6.886;2022-07-11T13:13:35;101986.00;;;26.20
60966;BMP180;46834;51.100;6.886;2022-07-11T13:16:01;101987.00;;;26.20
60966;BMP180;46834;51.100;6.886;2022-07-11T13:18:28;101997.00;;;26.20
60966;BMP180;46834;51.100;6.886;2022-07-11T13:20:53;101990.00;;;26.20
60966;BMP180;46834;51.100;6.886;2022-07-11T13:23:21;101993.00;;;26.30
60966;BMP180;46834;51.100;6.886;2022-07-11T13:25:47;102009.00;;;26.30
60966;BMP180;46834;51.100;6.886;2022-07-11T13:28:13;101996.00;;;26.30
60966;BMP180;46834;51.100;6.886;2022-07-11T13:30:39;101990.00;;;26.30
60966;BMP180;46834;51.100;6.886;2022-07-11T13:33:06;101991.00;;;26.40
60966;BMP180;46834;51.100;6.886;2022-07-11T13:35:33;101989.00;;;26.40
60966;BMP180;46834;51.100;6.886;2022-07-11T13:37:59;102004.00;;;26.40
60966;BMP180;46834;51.100;6.886;2022-07-11T13:40:24;101995.00;;;26.40
60966;BMP180;46834;51.100;6.886;2022-07-11T13:42:51;102007.00;;;26.50
60966;BMP180;46834;51.100;6.886;2022-07-11T13:45:21;101997.00;;;26.40
60966;BMP180;46834;51.100;6.886;2022-07-11T13:47:49;102007.00;;;26.50
60966;BMP180;46834;51.100;6.886;2022-07-11T13:50:16;101995.00;;;26.50
60966;BMP180;46834;51.100;6.886;2022-07-11T13:52:42;102003.00;;;26.50
60966;BMP180;46834;51.100;6.886;2022-07-11T13:55:12;102002.00;;;26.60
60966;BMP180;46834;51.100;6.886;2022-07-11T13:57:38;102001.00;;;26.60
60966;BMP180;46834;51.100;6.886;2022-07-11T14:00:05;101989.00;;;26.60
60966;BMP180;46834;51.100;6.886;2022-07-11T14:02:32;101991.00;;;26.70
60966;BMP180;46834;51.100;6.886;2022-07-11T14:04:58;101998.00;;;26.70
60966;BMP180;46834;51.100;6.886;2022-07-11T14:07:24;101988.00;;;26.70
60966;BMP180;46834;51.100;6.886;2022-07-11T14:09:50;101997.00;;;26.70
60966;BMP180;46834;51.100;6.886;2022-07-11T14:12:16;101998.00;;;26.80
60966;BMP180;46834;51.100;6.886;2022-07-11T14:14:42;101990.00;;;26.80
60966;BMP180;46834;51.100;6.886;2022-07-11T14:17:08;101987.00;;;26.80
60966;BMP180;46834;51.100;6.886;2022-07-11T14:19:34;101990.00;;;26.90